CYUB

Details ICAO CYUB (YUB)
Name TUKTOYAKTUK
Region Canada
Timezone America/Yellowknife (UTC-7.0)
Plans Departing 2
Arriving 4
Stats Elevation 15 ft / 5 m (AMSL)
Location 69.433334° -133.026390°
Runways 1
Magnetic Variation 21.827° E
Sunrise Unknown / Unknown
Sunset Unknown / Unknown
Advertisement - Login to hide

Runways

ID Width Length Bearing (true) Bearing (mag) Surface Threshold Offset Overrun Length
09 150 ft / 46 m 5,012 ft / 1,528 m 124.50° 102.67° Gravel 200 ft / 61 m 0 ft / 0 m
27 150 ft / 46 m 5,012 ft / 1,528 m 304.53° 282.70° Gravel 200 ft / 61 m 0 ft / 0 m

Map

Weather


0- 5 10 15 20 25 30 35+ Temperature / ° C

Clouds and Precipitation
Forecast for 2017-12-17 06:00 UTC. Updated 2 hours ago

Ground ~20,000 ft ~40,000 ft Winds

METAR

CYUB 170200Z 06010KT 6SM -SN SCT058 BKN170 M16/M18 A2947 RMK SC3AS3 SLP983

TAF

TAF CYUB 170038Z 1701/1706 08015KT 21/2SM -SN BLSN BKN008 OVC060 TEMPO 1701/1706 6SM -SN SCT008 OVC060 PROB30 1701/1706 11/2SM -SHSN OVC005 RMK NXT FCST WILL BE ISSUED AT 171545Z

Frequencies

Unicom 122.10 MHz MANDATORY FREQ
Warning: Do not use this data for real-world aviation or navigation. No guarantee of current accuracy is given.